sensor_id;sensor_type;location;lat;lon;timestamp;pressure;altitude;pressure_sealevel;temperature;humidity
56737;BME280;42618;51.226;4.910;2023-08-07T00:01:54;49780.84;;;-146.94;100.00
56737;BME280;42618;51.226;4.910;2023-08-07T00:04:21;49752.91;;;-146.94;100.00
56737;BME280;42618;51.226;4.910;2023-08-07T00:06:48;49758.91;;;-146.94;100.00
56737;BME280;42618;51.226;4.910;2023-08-07T00:09:15;49754.91;;;-146.94;100.00
56737;BME280;42618;51.226;4.910;2023-08-07T00:11:41;49784.81;;;-146.94;100.00
56737;BME280;42618;51.226;4.910;2023-08-07T00:14:08;49776.84;;;-146.94;100.00
56737;BME280;42618;51.226;4.910;2023-08-07T00:16:35;49778.84;;;-146.94;100.00
56737;BME280;42618;51.226;4.910;2023-08-07T00:19:02;49782.81;;;-146.94;100.00
56737;BME280;42618;51.226;4.910;2023-08-07T00:21:29;49750.94;;;-146.94;100.00
56737;BME280;42618;51.226;4.910;2023-08-07T00:23:56;49762.88;;;-146.94;100.00
56737;BME280;42618;51.226;4.910;2023-08-07T00:26:23;49770.88;;;-146.94;100.00
56737;BME280;42618;51.226;4.910;2023-08-07T00:28:49;49790.81;;;-146.94;100.00
56737;BME280;42618;51.226;4.910;2023-08-07T00:31:16;49772.84;;;-146.94;100.00
56737;BME280;42618;51.226;4.910;2023-08-07T00:33:43;49744.94;;;-146.94;100.00
56737;BME280;42618;51.226;4.910;2023-08-07T00:36:10;49762.88;;;-146.94;100.00
56737;BME280;42618;51.226;4.910;2023-08-07T00:38:37;49782.81;;;-146.94;100.00
56737;BME280;42618;51.226;4.910;2023-08-07T00:41:04;49746.94;;;-146.94;100.00
56737;BME280;42618;51.226;4.910;2023-08-07T00:43:34;49770.88;;;-146.94;100.00
56737;BME280;42618;51.226;4.910;2023-08-07T00:46:01;49766.88;;;-146.94;100.00
56737;BME280;42618;51.226;4.910;2023-08-07T00:48:28;49774.84;;;-146.94;100.00
56737;BME280;42618;51.226;4.910;2023-08-07T00:50:55;49792.78;;;-146.94;100.00
56737;BME280;42618;51.226;4.910;2023-08-07T00:53:23;49770.88;;;-146.94;100.00
56737;BME280;42618;51.226;4.910;2023-08-07T00:55:50;49738.97;;;-146.94;100.00
56737;BME280;42618;51.226;4.910;2023-08-07T00:58:17;49738.97;;;-146.94;100.00
56737;BME280;42618;51.226;4.910;2023-08-07T01:00:44;49764.88;;;-146.94;100.00
56737;BME280;42618;51.226;4.910;2023-08-07T01:03:12;49734.97;;;-146.94;100.00
56737;BME280;42618;51.226;4.910;2023-08-07T01:05:40;49782.81;;;-146.94;100.00
56737;BME280;42618;51.226;4.910;2023-08-07T01:08:07;49752.91;;;-146.94;100.00
56737;BME280;42618;51.226;4.910;2023-08-07T01:10:43;49731.00;;;-146.94;100.00
56737;BME280;42618;51.226;4.910;2023-08-07T01:13:35;49744.94;;;-146.94;100.00
56737;BME280;42618;51.226;4.910;2023-08-07T01:16:10;49762.88;;;-146.94;100.00
56737;BME280;42618;51.226;4.910;2023-08-07T01:18:39;49772.84;;;-146.94;100.00
56737;BME280;42618;51.226;4.910;2023-08-07T01:21:17;49717.03;;;-146.94;100.00
56737;BME280;42618;51.226;4.910;2023-08-07T01:23:48;49756.91;;;-146.94;100.00
56737;BME280;42618;51.226;4.910;2023-08-07T01:26:17;49758.91;;;-146.94;100.00
56737;BME280;42618;51.226;4.910;2023-08-07T01:29:26;49713.06;;;-146.94;100.00
56737;BME280;42618;51.226;4.910;2023-08-07T01:32:00;49816.72;;;-146.94;100.00
56737;BME280;42618;51.226;4.910;2023-08-07T01:34:29;49715.03;;;-146.94;100.00
56737;BME280;42618;51.226;4.910;2023-08-07T01:36:56;49744.94;;;-146.94;100.00
56737;BME280;42618;51.226;4.910;2023-08-07T01:39:24;49750.94;;;-146.94;100.00
56737;BME280;42618;51.226;4.910;2023-08-07T01:41:53;49770.88;;;-146.94;100.00
56737;BME280;42618;51.226;4.910;2023-08-07T01:44:21;49748.94;;;-146.94;100.00
56737;BME280;42618;51.226;4.910;2023-08-07T01:46:48;49798.78;;;-146.94;100.00
56737;BME280;42618;51.226;4.910;2023-08-07T01:49:15;49760.91;;;-146.94;100.00
56737;BME280;42618;51.226;4.910;2023-08-07T01:51:41;49774.84;;;-146.94;100.00
56737;BME280;42618;51.226;4.910;2023-08-07T01:54:08;49752.91;;;-146.94;100.00
56737;BME280;42618;51.226;4.910;2023-08-07T01:56:35;49770.88;;;-146.94;100.00
56737;BME280;42618;51.226;4.910;2023-08-07T01:59:01;49762.88;;;-146.94;100.00
56737;BME280;42618;51.226;4.910;2023-08-07T02:01:28;49788.81;;;-146.94;100.00
56737;BME280;42618;51.226;4.910;2023-08-07T02:03:55;49756.91;;;-146.94;100.00
56737;BME280;42618;51.226;4.910;2023-08-07T02:06:22;49794.78;;;-146.94;100.00
56737;BME280;42618;51.226;4.910;2023-08-07T02:08:49;49733.00;;;-146.94;100.00
56737;BME280;42618;51.226;4.910;2023-08-07T02:11:16;49758.91;;;-146.94;100.00
56737;BME280;42618;51.226;4.910;2023-08-07T02:13:43;49794.78;;;-146.94;100.00
56737;BME280;42618;51.226;4.910;2023-08-07T02:16:09;49772.84;;;-146.94;100.00
56737;BME280;42618;51.226;4.910;2023-08-07T02:18:36;49778.84;;;-146.94;100.00
56737;BME280;42618;51.226;4.910;2023-08-07T02:21:03;49770.88;;;-146.94;100.00
56737;BME280;42618;51.226;4.910;2023-08-07T02:23:30;49786.81;;;-146.94;100.00
56737;BME280;42618;51.226;4.910;2023-08-07T02:25:56;49772.84;;;-146.94;100.00
56737;BME280;42618;51.226;4.910;2023-08-07T02:28:23;49780.84;;;-146.94;100.00
56737;BME280;42618;51.226;4.910;2023-08-07T02:30:50;49750.94;;;-146.94;100.00
56737;BME280;42618;51.226;4.910;2023-08-07T02:33:18;49754.91;;;-146.94;100.00
56737;BME280;42618;51.226;4.910;2023-08-07T02:35:45;49746.94;;;-146.94;100.00
56737;BME280;42618;51.226;4.910;2023-08-07T02:38:12;49746.94;;;-146.94;100.00
56737;BME280;42618;51.226;4.910;2023-08-07T02:40:39;49764.88;;;-146.94;100.00
56737;BME280;42618;51.226;4.910;2023-08-07T02:43:06;49734.97;;;-146.94;100.00
56737;BME280;42618;51.226;4.910;2023-08-07T02:45:35;49778.84;;;-146.94;100.00
56737;BME280;42618;51.226;4.910;2023-08-07T02:48:03;49750.94;;;-146.94;100.00
56737;BME280;42618;51.226;4.910;2023-08-07T02:50:29;49782.81;;;-146.94;100.00
56737;BME280;42618;51.226;4.910;2023-08-07T02:53:00;49762.88;;;-146.94;100.00
56737;BME280;42618;51.226;4.910;2023-08-07T02:55:27;49782.81;;;-146.94;100.00
56737;BME280;42618;51.226;4.910;2023-08-07T02:57:53;49758.91;;;-146.94;100.00
56737;BME280;42618;51.226;4.910;2023-08-07T03:00:20;49774.84;;;-146.94;100.00
56737;BME280;42618;51.226;4.910;2023-08-07T03:02:49;49784.81;;;-146.94;100.00
56737;BME280;42618;51.226;4.910;2023-08-07T03:05:16;49760.91;;;-146.94;100.00
56737;BME280;42618;51.226;4.910;2023-08-07T03:07:43;49792.78;;;-146.94;100.00
56737;BME280;42618;51.226;4.910;2023-08-07T03:10:10;49750.94;;;-146.94;100.00
56737;BME280;42618;51.226;4.910;2023-08-07T03:12:38;49780.84;;;-146.94;100.00
56737;BME280;42618;51.226;4.910;2023-08-07T03:15:05;49738.97;;;-146.94;100.00
56737;BME280;42618;51.226;4.910;2023-08-07T03:17:32;49790.81;;;-146.94;100.00
56737;BME280;42618;51.226;4.910;2023-08-07T03:19:59;49754.91;;;-146.94;100.00
56737;BME280;42618;51.226;4.910;2023-08-07T03:22:26;49772.84;;;-146.94;100.00
56737;BME280;42618;51.226;4.910;2023-08-07T03:24:54;49776.84;;;-146.94;100.00
56737;BME280;42618;51.226;4.910;2023-08-07T03:27:21;49800.78;;;-146.94;100.00
56737;BME280;42618;51.226;4.910;2023-08-07T03:29:47;49762.88;;;-146.94;100.00
56737;BME280;42618;51.226;4.910;2023-08-07T03:32:15;49762.88;;;-146.94;100.00
56737;BME280;42618;51.226;4.910;2023-08-07T03:34:42;49792.78;;;-146.94;100.00
56737;BME280;42618;51.226;4.910;2023-08-07T03:37:09;49750.94;;;-146.94;100.00
56737;BME280;42618;51.226;4.910;2023-08-07T03:39:36;49802.75;;;-146.94;100.00
56737;BME280;42618;51.226;4.910;2023-08-07T03:42:03;49784.81;;;-146.94;100.00
56737;BME280;42618;51.226;4.910;2023-08-07T03:44:30;49788.81;;;-146.94;100.00
56737;BME280;42618;51.226;4.910;2023-08-07T03:46:57;49746.94;;;-146.94;100.00
56737;BME280;42618;51.226;4.910;2023-08-07T03:49:24;49770.88;;;-146.94;100.00
56737;BME280;42618;51.226;4.910;2023-08-07T03:51:52;49727.00;;;-146.94;100.00
56737;BME280;42618;51.226;4.910;2023-08-07T03:54:19;49719.03;;;-146.94;100.00
56737;BME280;42618;51.226;4.910;2023-08-07T03:56:46;49746.94;;;-146.94;100.00
56737;BME280;42618;51.226;4.910;2023-08-07T03:59:13;49748.94;;;-146.94;100.00
56737;BME280;42618;51.226;4.910;2023-08-07T04:01:40;49770.88;;;-146.94;100.00
56737;BME280;42618;51.226;4.910;2023-08-07T04:04:07;49772.84;;;-146.94;100.00
56737;BME280;42618;51.226;4.910;2023-08-07T04:06:34;49772.84;;;-146.94;100.00
56737;BME280;42618;51.226;4.910;2023-08-07T04:09:00;49736.97;;;-146.94;100.00
56737;BME280;42618;51.226;4.910;2023-08-07T04:11:30;49754.91;;;-146.94;100.00
56737;BME280;42618;51.226;4.910;2023-08-07T04:13:56;49766.88;;;-146.94;100.00
56737;BME280;42618;51.226;4.910;2023-08-07T04:16:23;49762.88;;;-146.94;100.00
56737;BME280;42618;51.226;4.910;2023-08-07T04:18:51;49762.88;;;-146.94;100.00
56737;BME280;42618;51.226;4.910;2023-08-07T04:21:18;49802.75;;;-146.94;100.00
56737;BME280;42618;51.226;4.910;2023-08-07T04:23:45;49810.75;;;-146.94;100.00
56737;BME280;42618;51.226;4.910;2023-08-07T04:26:12;49740.97;;;-146.94;100.00
56737;BME280;42618;51.226;4.910;2023-08-07T04:28:39;49778.84;;;-146.94;100.00
56737;BME280;42618;51.226;4.910;2023-08-07T04:31:05;49806.75;;;-146.94;100.00
56737;BME280;42618;51.226;4.910;2023-08-07T04:33:32;49802.75;;;-146.94;100.00
56737;BME280;42618;51.226;4.910;2023-08-07T04:35:59;49766.88;;;-146.94;100.00
56737;BME280;42618;51.226;4.910;2023-08-07T04:38:28;49780.84;;;-146.94;100.00
56737;BME280;42618;51.226;4.910;2023-08-07T04:40:54;49727.00;;;-146.94;100.00
56737;BME280;42618;51.226;4.910;2023-08-07T04:43:21;49786.81;;;-146.94;100.00
56737;BME280;42618;51.226;4.910;2023-08-07T04:45:48;49808.75;;;-146.94;100.00
56737;BME280;42618;51.226;4.910;2023-08-07T04:48:16;49774.84;;;-146.94;100.00
56737;BME280;42618;51.226;4.910;2023-08-07T04:50:44;49754.91;;;-146.94;100.00
56737;BME280;42618;51.226;4.910;2023-08-07T04:53:11;49752.91;;;-146.94;100.00
56737;BME280;42618;51.226;4.910;2023-08-07T04:55:38;49756.91;;;-146.94;100.00
56737;BME280;42618;51.226;4.910;2023-08-07T04:58:05;49770.88;;;-146.94;100.00
56737;BME280;42618;51.226;4.910;2023-08-07T05:00:32;49774.84;;;-146.94;100.00
56737;BME280;42618;51.226;4.910;2023-08-07T05:02:59;49766.88;;;-146.94;100.00
56737;BME280;42618;51.226;4.910;2023-08-07T05:05:26;49770.88;;;-146.94;100.00
56737;BME280;42618;51.226;4.910;2023-08-07T05:07:54;49782.81;;;-146.94;100.00
56737;BME280;42618;51.226;4.910;2023-08-07T05:10:22;49746.94;;;-146.94;100.00
56737;BME280;42618;51.226;4.910;2023-08-07T05:12:48;49784.81;;;-146.94;100.00
56737;BME280;42618;51.226;4.910;2023-08-07T05:15:25;49762.88;;;-146.94;100.00
56737;BME280;42618;51.226;4.910;2023-08-07T05:17:52;49838.66;;;-146.94;100.00
56737;BME280;42618;51.226;4.910;2023-08-07T05:20:19;49774.84;;;-146.94;100.00
56737;BME280;42618;51.226;4.910;2023-08-07T05:22:46;49776.84;;;-146.94;100.00
56737;BME280;42618;51.226;4.910;2023-08-07T05:25:14;49734.97;;;-146.94;100.00
56737;BME280;42618;51.226;4.910;2023-08-07T05:27:45;49744.94;;;-146.94;100.00
56737;BME280;42618;51.226;4.910;2023-08-07T05:30:12;49762.88;;;-146.94;100.00
56737;BME280;42618;51.226;4.910;2023-08-07T05:32:39;49754.91;;;-146.94;100.00
56737;BME280;42618;51.226;4.910;2023-08-07T05:35:07;49736.97;;;-146.94;100.00
56737;BME280;42618;51.226;4.910;2023-08-07T05:37:34;49736.97;;;-146.94;100.00
56737;BME280;42618;51.226;4.910;2023-08-07T05:40:01;49772.84;;;-146.94;100.00
56737;BME280;42618;51.226;4.910;2023-08-07T05:42:28;49764.88;;;-146.94;100.00
56737;BME280;42618;51.226;4.910;2023-08-07T05:44:55;49746.94;;;-146.94;100.00
56737;BME280;42618;51.226;4.910;2023-08-07T05:47:22;49752.91;;;-146.94;100.00
56737;BME280;42618;51.226;4.910;2023-08-07T05:49:49;49742.94;;;-146.94;100.00
56737;BME280;42618;51.226;4.910;2023-08-07T05:52:17;49742.94;;;-146.94;100.00
56737;BME280;42618;51.226;4.910;2023-08-07T05:54:44;49778.84;;;-146.94;100.00
56737;BME280;42618;51.226;4.910;2023-08-07T05:57:11;49768.88;;;-146.94;100.00
56737;BME280;42618;51.226;4.910;2023-08-07T05:59:37;49762.88;;;-146.94;100.00
56737;BME280;42618;51.226;4.910;2023-08-07T06:02:06;49754.91;;;-146.94;100.00
56737;BME280;42618;51.226;4.910;2023-08-07T06:04:33;49766.88;;;-146.94;100.00
56737;BME280;42618;51.226;4.910;2023-08-07T06:07:00;49748.94;;;-146.94;100.00
56737;BME280;42618;51.226;4.910;2023-08-07T06:09:27;49734.97;;;-146.94;100.00
56737;BME280;42618;51.226;4.910;2023-08-07T06:11:53;49748.94;;;-146.94;100.00
56737;BME280;42618;51.226;4.910;2023-08-07T06:14:21;49729.00;;;-146.94;100.00
56737;BME280;42618;51.226;4.910;2023-08-07T06:16:47;49766.88;;;-146.94;100.00
56737;BME280;42618;51.226;4.910;2023-08-07T06:19:14;49760.91;;;-146.94;100.00
56737;BME280;42618;51.226;4.910;2023-08-07T06:21:57;49738.97;;;-146.94;100.00
56737;BME280;42618;51.226;4.910;2023-08-07T06:24:24;49758.91;;;-146.94;100.00
56737;BME280;42618;51.226;4.910;2023-08-07T06:26:52;49764.88;;;-146.94;100.00
56737;BME280;42618;51.226;4.910;2023-08-07T06:29:19;49729.00;;;-146.94;100.00
56737;BME280;42618;51.226;4.910;2023-08-07T06:31:45;49764.88;;;-146.94;100.00
56737;BME280;42618;51.226;4.910;2023-08-07T06:34:12;49695.09;;;-146.94;100.00
56737;BME280;42618;51.226;4.910;2023-08-07T06:36:39;49746.94;;;-146.94;100.00
56737;BME280;42618;51.226;4.910;2023-08-07T06:39:05;49764.88;;;-146.94;99.44
56737;BME280;42618;51.226;4.910;2023-08-07T06:41:32;49731.00;;;-146.94;98.84
56737;BME280;42618;51.226;4.910;2023-08-07T06:43:59;49744.94;;;-146.94;97.18
56737;BME280;42618;51.226;4.910;2023-08-07T06:46:26;49736.97;;;-146.94;96.53
56737;BME280;42618;51.226;4.910;2023-08-07T06:48:54;49754.91;;;-146.94;94.96
56737;BME280;42618;51.226;4.910;2023-08-07T06:51:21;49713.06;;;-146.94;94.38
56737;BME280;42618;51.226;4.910;2023-08-07T06:53:48;49719.03;;;-146.94;93.45
56737;BME280;42618;51.226;4.910;2023-08-07T06:56:14;49760.91;;;-146.94;93.00
56737;BME280;42618;51.226;4.910;2023-08-07T06:58:41;49693.13;;;-146.94;92.53
56737;BME280;42618;51.226;4.910;2023-08-07T07:01:08;49752.91;;;-146.94;93.25
56737;BME280;42618;51.226;4.910;2023-08-07T07:03:35;49699.09;;;-146.94;92.20
56737;BME280;42618;51.226;4.910;2023-08-07T07:06:02;49711.06;;;-146.94;93.13
56737;BME280;42618;51.226;4.910;2023-08-07T07:08:28;49750.94;;;-146.94;92.89
56737;BME280;42618;51.226;4.910;2023-08-07T07:10:55;49740.97;;;-146.94;92.80
56737;BME280;42618;51.226;4.910;2023-08-07T07:13:24;49723.03;;;-146.94;93.17
56737;BME280;42618;51.226;4.910;2023-08-07T07:15:55;49748.94;;;-146.94;93.43
56737;BME280;42618;51.226;4.910;2023-08-07T07:18:22;49683.16;;;-146.94;94.01
56737;BME280;42618;51.226;4.910;2023-08-07T07:20:56;49733.00;;;-146.94;93.08
56737;BME280;42618;51.226;4.910;2023-08-07T07:23:24;49734.97;;;-146.94;92.48
56737;BME280;42618;51.226;4.910;2023-08-07T07:25:51;49703.09;;;-146.94;93.73
56737;BME280;42618;51.226;4.910;2023-08-07T07:28:17;49742.94;;;-146.94;93.67
56737;BME280;42618;51.226;4.910;2023-08-07T07:30:44;49693.13;;;-146.94;93.13
56737;BME280;42618;51.226;4.910;2023-08-07T07:33:11;49754.91;;;-146.94;91.46
56737;BME280;42618;51.226;4.910;2023-08-07T07:35:40;49742.94;;;-146.94;89.98
56737;BME280;42618;51.226;4.910;2023-08-07T07:38:07;49746.94;;;-146.94;89.29
56737;BME280;42618;51.226;4.910;2023-08-07T07:40:34;49719.03;;;-146.94;87.77
56737;BME280;42618;51.226;4.910;2023-08-07T07:43:00;49758.91;;;-146.94;86.34
56737;BME280;42618;51.226;4.910;2023-08-07T07:45:27;49691.13;;;-146.94;85.53
56737;BME280;42618;51.226;4.910;2023-08-07T07:47:54;49738.97;;;-146.94;85.38
56737;BME280;42618;51.226;4.910;2023-08-07T07:50:21;49719.03;;;-146.94;85.39
56737;BME280;42618;51.226;4.910;2023-08-07T07:52:48;49748.94;;;-146.94;83.11
56737;BME280;42618;51.226;4.910;2023-08-07T07:55:15;49711.06;;;-146.94;81.77
56737;BME280;42618;51.226;4.910;2023-08-07T07:57:41;49723.03;;;-146.94;81.53
56737;BME280;42618;51.226;4.910;2023-08-07T08:00:09;49717.03;;;-146.94;80.69
56737;BME280;42618;51.226;4.910;2023-08-07T08:02:40;49715.03;;;-146.94;80.31
56737;BME280;42618;51.226;4.910;2023-08-07T08:05:09;49711.06;;;-146.94;76.15
56737;BME280;42618;51.226;4.910;2023-08-07T08:07:39;49734.97;;;-146.94;76.01
56737;BME280;42618;51.226;4.910;2023-08-07T08:10:07;49697.09;;;-146.94;75.18
56737;BME280;42618;51.226;4.910;2023-08-07T08:12:35;49709.06;;;-146.94;71.90
56737;BME280;42618;51.226;4.910;2023-08-07T08:15:03;49689.13;;;-146.94;69.89
56737;BME280;42618;51.226;4.910;2023-08-07T08:17:30;49655.25;;;-146.94;71.46
56737;BME280;42618;51.226;4.910;2023-08-07T08:19:57;49695.09;;;-146.94;70.27
56737;BME280;42618;51.226;4.910;2023-08-07T08:22:25;49705.06;;;-146.94;68.00
56737;BME280;42618;51.226;4.910;2023-08-07T08:24:51;49679.16;;;-146.94;67.18
56737;BME280;42618;51.226;4.910;2023-08-07T08:27:18;49685.13;;;-146.94;67.68
56737;BME280;42618;51.226;4.910;2023-08-07T08:29:45;49701.09;;;-146.94;67.53
56737;BME280;42618;51.226;4.910;2023-08-07T08:32:12;49703.09;;;-146.94;67.27
56737;BME280;42618;51.226;4.910;2023-08-07T08:34:39;49687.13;;;-146.94;65.69
56737;BME280;42618;51.226;4.910;2023-08-07T08:37:06;49717.03;;;-146.94;65.89
56737;BME280;42618;51.226;4.910;2023-08-07T08:39:33;49711.06;;;-146.94;62.65
56737;BME280;42618;51.226;4.910;2023-08-07T08:41:59;49683.16;;;-146.94;63.49
56737;BME280;42618;51.226;4.910;2023-08-07T08:44:29;49687.13;;;-146.94;63.09
56737;BME280;42618;51.226;4.910;2023-08-07T08:46:59;49731.00;;;-146.94;62.34
56737;BME280;42618;51.226;4.910;2023-08-07T08:49:33;49695.09;;;-146.94;64.14
56737;BME280;42618;51.226;4.910;2023-08-07T08:52:04;49709.06;;;-146.94;66.09
56737;BME280;42618;51.226;4.910;2023-08-07T08:54:32;49689.13;;;-146.94;67.92
56737;BME280;42618;51.226;4.910;2023-08-07T08:56:59;49711.06;;;-146.94;67.10
56737;BME280;42618;51.226;4.910;2023-08-07T08:59:27;49689.13;;;-146.94;67.91
56737;BME280;42618;51.226;4.910;2023-08-07T09:01:54;49675.19;;;-146.94;63.84
56737;BME280;42618;51.226;4.910;2023-08-07T09:04:20;49675.19;;;-146.94;65.58
56737;BME280;42618;51.226;4.910;2023-08-07T09:06:47;49703.09;;;-146.94;66.21
56737;BME280;42618;51.226;4.910;2023-08-07T09:09:16;49675.19;;;-146.94;66.98
56737;BME280;42618;51.226;4.910;2023-08-07T09:11:45;49671.19;;;-146.94;66.67
56737;BME280;42618;51.226;4.910;2023-08-07T09:14:14;49673.19;;;-146.94;67.97
56737;BME280;42618;51.226;4.910;2023-08-07T09:16:43;49685.13;;;-146.94;70.63
56737;BME280;42618;51.226;4.910;2023-08-07T09:19:11;49679.16;;;-146.94;70.63
56737;BME280;42618;51.226;4.910;2023-08-07T09:21:38;49707.06;;;-146.94;72.16
56737;BME280;42618;51.226;4.910;2023-08-07T09:24:05;49711.06;;;-146.94;72.65
56737;BME280;42618;51.226;4.910;2023-08-07T09:26:32;49711.06;;;-146.94;72.15
56737;BME280;42618;51.226;4.910;2023-08-07T09:29:02;49701.09;;;-146.94;70.86
56737;BME280;42618;51.226;4.910;2023-08-07T09:31:29;49653.25;;;-146.94;71.60
56737;BME280;42618;51.226;4.910;2023-08-07T09:34:04;49713.06;;;-146.94;67.74
56737;BME280;42618;51.226;4.910;2023-08-07T09:36:32;49691.13;;;-146.94;69.07
56737;BME280;42618;51.226;4.910;2023-08-07T09:39:02;49639.28;;;-146.94;67.96
56737;BME280;42618;51.226;4.910;2023-08-07T09:41:30;49689.13;;;-146.94;69.13
56737;BME280;42618;51.226;4.910;2023-08-07T09:43:57;49647.25;;;-146.94;71.14
56737;BME280;42618;51.226;4.910;2023-08-07T09:46:27;49687.13;;;-146.94;72.04
56737;BME280;42618;51.226;4.910;2023-08-07T09:48:57;49673.19;;;-146.94;71.88
56737;BME280;42618;51.226;4.910;2023-08-07T09:51:25;49717.03;;;-146.94;71.43
56737;BME280;42618;51.226;4.910;2023-08-07T09:53:52;49707.06;;;-146.94;71.35
56737;BME280;42618;51.226;4.910;2023-08-07T09:56:18;49667.19;;;-146.94;70.84
56737;BME280;42618;51.226;4.910;2023-08-07T09:58:48;49665.22;;;-146.94;70.87
56737;BME280;42618;51.226;4.910;2023-08-07T10:01:16;49691.13;;;-146.94;68.99
56737;BME280;42618;51.226;4.910;2023-08-07T10:03:43;49677.16;;;-146.94;68.38
56737;BME280;42618;51.226;4.910;2023-08-07T10:06:11;49653.25;;;-146.94;69.44
56737;BME280;42618;51.226;4.910;2023-08-07T10:08:39;49665.22;;;-146.94;69.58
56737;BME280;42618;51.226;4.910;2023-08-07T10:11:08;49639.28;;;-146.94;69.75
56737;BME280;42618;51.226;4.910;2023-08-07T10:13:36;49669.19;;;-146.94;68.92
56737;BME280;42618;51.226;4.910;2023-08-07T10:16:05;49667.19;;;-146.94;65.92
56737;BME280;42618;51.226;4.910;2023-08-07T10:18:33;49657.22;;;-146.94;65.51
56737;BME280;42618;51.226;4.910;2023-08-07T10:21:01;49627.31;;;-146.94;63.17
56737;BME280;42618;51.226;4.910;2023-08-07T10:23:29;49625.34;;;-146.94;62.96
56737;BME280;42618;51.226;4.910;2023-08-07T10:25:56;49675.19;;;-146.94;66.30
56737;BME280;42618;51.226;4.910;2023-08-07T10:28:26;49681.16;;;-146.94;66.21
56737;BME280;42618;51.226;4.910;2023-08-07T10:30:56;49703.09;;;-146.94;66.32
56737;BME280;42618;51.226;4.910;2023-08-07T10:33:23;49681.16;;;-146.94;68.67
56737;BME280;42618;51.226;4.910;2023-08-07T10:35:52;49643.28;;;-146.94;72.98
56737;BME280;42618;51.226;4.910;2023-08-07T10:38:20;49695.09;;;-146.94;75.45
56737;BME280;42618;51.226;4.910;2023-08-07T10:41:08;49659.22;;;-146.94;74.76
56737;BME280;42618;51.226;4.910;2023-08-07T10:43:46;49677.16;;;-146.94;75.67
56737;BME280;42618;51.226;4.910;2023-08-07T10:46:20;49663.22;;;-146.94;75.17
56737;BME280;42618;51.226;4.910;2023-08-07T10:48:55;49663.22;;;-146.94;75.40
56737;BME280;42618;51.226;4.910;2023-08-07T10:51:29;49665.22;;;-146.94;71.74
56737;BME280;42618;51.226;4.910;2023-08-07T10:54:01;49653.25;;;-146.94;70.21
56737;BME280;42618;51.226;4.910;2023-08-07T10:56:34;49643.28;;;-146.94;67.08
56737;BME280;42618;51.226;4.910;2023-08-07T10:59:09;49657.22;;;-146.94;64.20
56737;BME280;42618;51.226;4.910;2023-08-07T11:04:15;49639.28;;;-146.94;59.92
56737;BME280;42618;51.226;4.910;2023-08-07T11:06:43;49641.28;;;-146.94;54.20
56737;BME280;42618;51.226;4.910;2023-08-07T11:09:13;49649.25;;;-146.94;53.25
56737;BME280;42618;51.226;4.910;2023-08-07T11:11:41;49663.22;;;-146.94;55.59
56737;BME280;42618;51.226;4.910;2023-08-07T11:14:13;49711.06;;;-146.94;57.36
56737;BME280;42618;51.226;4.910;2023-08-07T11:16:41;49659.22;;;-146.94;57.41
56737;BME280;42618;51.226;4.910;2023-08-07T11:19:08;49667.19;;;-146.94;56.68
56737;BME280;42618;51.226;4.910;2023-08-07T11:21:37;49653.25;;;-146.94;55.38
56737;BME280;42618;51.226;4.910;2023-08-07T11:24:04;49623.34;;;-146.94;51.67
56737;BME280;42618;51.226;4.910;2023-08-07T11:26:30;49627.31;;;-146.94;49.74
56737;BME280;42618;51.226;4.910;2023-08-07T11:28:57;49657.22;;;-146.94;51.48
56737;BME280;42618;51.226;4.910;2023-08-07T11:31:25;49665.22;;;-146.94;53.95
56737;BME280;42618;51.226;4.910;2023-08-07T11:33:52;49633.31;;;-146.94;51.62
56737;BME280;42618;51.226;4.910;2023-08-07T11:36:20;49649.25;;;-146.94;50.46
56737;BME280;42618;51.226;4.910;2023-08-07T11:38:48;49659.22;;;-146.94;48.77
56737;BME280;42618;51.226;4.910;2023-08-07T11:41:16;49619.34;;;-146.94;45.81
56737;BME280;42618;51.226;4.910;2023-08-07T11:43:44;49645.28;;;-146.94;46.54
56737;BME280;42618;51.226;4.910;2023-08-07T11:46:14;49647.25;;;-146.94;46.05
56737;BME280;42618;51.226;4.910;2023-08-07T11:48:42;49585.47;;;-146.94;46.63
56737;BME280;42618;51.226;4.910;2023-08-07T11:51:09;49599.41;;;-146.94;46.31
56737;BME280;42618;51.226;4.910;2023-08-07T11:53:37;49627.31;;;-146.94;45.76
56737;BME280;42618;51.226;4.910;2023-08-07T11:56:09;49581.47;;;-146.94;45.55
56737;BME280;42618;51.226;4.910;2023-08-07T11:58:38;49641.28;;;-146.94;46.16
56737;BME280;42618;51.226;4.910;2023-08-07T12:01:09;49649.25;;;-146.94;47.88
56737;BME280;42618;51.226;4.910;2023-08-07T12:03:38;49637.28;;;-146.94;47.59
56737;BME280;42618;51.226;4.910;2023-08-07T12:06:07;49639.28;;;-146.94;49.48
56737;BME280;42618;51.226;4.910;2023-08-07T12:08:36;49641.28;;;-146.94;49.03
56737;BME280;42618;51.226;4.910;2023-08-07T12:11:13;49615.38;;;-146.94;49.25
56737;BME280;42618;51.226;4.910;2023-08-07T12:13:44;49649.25;;;-146.94;48.87
56737;BME280;42618;51.226;4.910;2023-08-07T12:16:12;49617.38;;;-146.94;47.60
56737;BME280;42618;51.226;4.910;2023-08-07T12:18:50;49611.38;;;-146.94;46.67
56737;BME280;42618;51.226;4.910;2023-08-07T12:21:19;49599.41;;;-146.94;47.41
56737;BME280;42618;51.226;4.910;2023-08-07T12:23:47;49591.44;;;-146.94;46.09
56737;BME280;42618;51.226;4.910;2023-08-07T12:26:17;49639.28;;;-146.94;46.38
56737;BME280;42618;51.226;4.910;2023-08-07T12:28:43;49587.47;;;-146.94;45.13
56737;BME280;42618;51.226;4.910;2023-08-07T12:31:10;49625.34;;;-146.94;45.93
56737;BME280;42618;51.226;4.910;2023-08-07T12:33:37;49603.41;;;-146.94;45.80
56737;BME280;42618;51.226;4.910;2023-08-07T12:36:04;49619.34;;;-146.94;47.41
56737;BME280;42618;51.226;4.910;2023-08-07T12:38:31;49597.44;;;-146.94;47.20
56737;BME280;42618;51.226;4.910;2023-08-07T12:40:58;49607.41;;;-146.94;47.97
56737;BME280;42618;51.226;4.910;2023-08-07T12:43:25;49659.22;;;-146.94;49.00